sensor_id;sensor_type;location;lat;lon;timestamp;P1;durP1;ratioP1;P2;durP2;ratioP2
43919;SDS011;29578;51.946;5.874;2024-03-08T00:01:49;4.05;;;1.95;;
43919;SDS011;29578;51.946;5.874;2024-03-08T00:04:15;4.00;;;1.90;;
43919;SDS011;29578;51.946;5.874;2024-03-08T00:06:41;4.43;;;2.03;;
43919;SDS011;29578;51.946;5.874;2024-03-08T00:09:07;5.00;;;2.20;;
43919;SDS011;29578;51.946;5.874;2024-03-08T00:11:34;3.72;;;1.98;;
43919;SDS011;29578;51.946;5.874;2024-03-08T00:14:00;2.90;;;1.55;;
43919;SDS011;29578;51.946;5.874;2024-03-08T00:16:25;5.05;;;2.35;;
43919;SDS011;29578;51.946;5.874;2024-03-08T00:18:52;3.33;;;1.80;;
43919;SDS011;29578;51.946;5.874;2024-03-08T00:21:18;4.70;;;2.17;;
43919;SDS011;29578;51.946;5.874;2024-03-08T00:23:44;3.92;;;1.75;;
43919;SDS011;29578;51.946;5.874;2024-03-08T00:26:09;5.68;;;2.20;;
43919;SDS011;29578;51.946;5.874;2024-03-08T00:28:35;3.83;;;1.88;;
43919;SDS011;29578;51.946;5.874;2024-03-08T00:31:01;5.03;;;2.55;;
43919;SDS011;29578;51.946;5.874;2024-03-08T00:33:27;5.57;;;2.00;;
43919;SDS011;29578;51.946;5.874;2024-03-08T00:35:53;5.15;;;2.22;;
43919;SDS011;29578;51.946;5.874;2024-03-08T00:38:19;5.97;;;2.03;;
43919;SDS011;29578;51.946;5.874;2024-03-08T00:40:45;5.60;;;2.42;;
43919;SDS011;29578;51.946;5.874;2024-03-08T00:43:10;4.30;;;2.15;;
43919;SDS011;29578;51.946;5.874;2024-03-08T00:45:36;4.85;;;2.60;;
43919;SDS011;29578;51.946;5.874;2024-03-08T00:48:02;4.00;;;2.05;;
43919;SDS011;29578;51.946;5.874;2024-03-08T00:50:29;4.70;;;2.28;;
43919;SDS011;29578;51.946;5.874;2024-03-08T00:52:54;4.07;;;1.90;;
43919;SDS011;29578;51.946;5.874;2024-03-08T00:55:21;4.35;;;2.20;;
43919;SDS011;29578;51.946;5.874;2024-03-08T00:57:46;5.10;;;2.10;;
43919;SDS011;29578;51.946;5.874;2024-03-08T01:00:12;3.70;;;1.95;;
43919;SDS011;29578;51.946;5.874;2024-03-08T01:02:39;3.72;;;1.88;;
43919;SDS011;29578;51.946;5.874;2024-03-08T01:05:05;5.28;;;2.00;;
43919;SDS011;29578;51.946;5.874;2024-03-08T01:07:32;3.55;;;2.10;;
43919;SDS011;29578;51.946;5.874;2024-03-08T01:09:59;5.28;;;2.22;;
43919;SDS011;29578;51.946;5.874;2024-03-08T01:12:26;4.20;;;2.45;;
43919;SDS011;29578;51.946;5.874;2024-03-08T01:14:51;5.20;;;2.30;;
43919;SDS011;29578;51.946;5.874;2024-03-08T01:17:17;3.42;;;2.10;;
43919;SDS011;29578;51.946;5.874;2024-03-08T01:19:42;5.65;;;2.13;;
43919;SDS011;29578;51.946;5.874;2024-03-08T01:22:10;3.88;;;1.88;;
43919;SDS011;29578;51.946;5.874;2024-03-08T01:24:36;3.85;;;2.08;;
43919;SDS011;29578;51.946;5.874;2024-03-08T01:27:02;4.00;;;2.08;;
43919;SDS011;29578;51.946;5.874;2024-03-08T01:29:28;5.35;;;2.40;;
43919;SDS011;29578;51.946;5.874;2024-03-08T01:31:55;4.57;;;2.45;;
43919;SDS011;29578;51.946;5.874;2024-03-08T01:34:21;4.40;;;2.13;;
43919;SDS011;29578;51.946;5.874;2024-03-08T01:36:47;3.72;;;2.08;;
43919;SDS011;29578;51.946;5.874;2024-03-08T01:39:14;4.72;;;2.40;;
43919;SDS011;29578;51.946;5.874;2024-03-08T01:41:39;4.93;;;2.05;;
43919;SDS011;29578;51.946;5.874;2024-03-08T01:44:05;3.33;;;1.75;;
43919;SDS011;29578;51.946;5.874;2024-03-08T01:46:32;3.33;;;1.85;;
43919;SDS011;29578;51.946;5.874;2024-03-08T01:48:59;4.07;;;1.90;;
43919;SDS011;29578;51.946;5.874;2024-03-08T01:51:25;3.97;;;1.95;;
43919;SDS011;29578;51.946;5.874;2024-03-08T01:53:53;4.20;;;1.98;;
43919;SDS011;29578;51.946;5.874;2024-03-08T01:56:20;3.67;;;1.90;;
43919;SDS011;29578;51.946;5.874;2024-03-08T01:58:46;2.55;;;1.58;;
43919;SDS011;29578;51.946;5.874;2024-03-08T02:01:12;3.45;;;1.75;;
43919;SDS011;29578;51.946;5.874;2024-03-08T02:03:40;3.80;;;1.70;;
43919;SDS011;29578;51.946;5.874;2024-03-08T02:06:09;3.50;;;1.92;;
43919;SDS011;29578;51.946;5.874;2024-03-08T02:08:39;3.00;;;1.53;;
43919;SDS011;29578;51.946;5.874;2024-03-08T02:11:07;3.97;;;1.80;;
43919;SDS011;29578;51.946;5.874;2024-03-08T02:13:32;2.28;;;1.30;;
43919;SDS011;29578;51.946;5.874;2024-03-08T02:15:59;2.63;;;1.65;;
43919;SDS011;29578;51.946;5.874;2024-03-08T02:18:25;3.25;;;1.80;;
43919;SDS011;29578;51.946;5.874;2024-03-08T02:20:52;2.53;;;1.38;;
43919;SDS011;29578;51.946;5.874;2024-03-08T02:23:20;2.80;;;1.60;;
43919;SDS011;29578;51.946;5.874;2024-03-08T02:25:47;4.28;;;2.03;;
43919;SDS011;29578;51.946;5.874;2024-03-08T02:28:14;3.45;;;1.65;;
43919;SDS011;29578;51.946;5.874;2024-03-08T02:30:40;3.53;;;1.95;;
43919;SDS011;29578;51.946;5.874;2024-03-08T02:33:06;3.97;;;1.98;;
43919;SDS011;29578;51.946;5.874;2024-03-08T02:35:34;4.22;;;2.10;;
43919;SDS011;29578;51.946;5.874;2024-03-08T02:38:01;4.03;;;1.98;;
43919;SDS011;29578;51.946;5.874;2024-03-08T02:40:28;5.13;;;2.50;;
43919;SDS011;29578;51.946;5.874;2024-03-08T02:42:54;2.60;;;1.70;;
43919;SDS011;29578;51.946;5.874;2024-03-08T02:45:20;3.08;;;1.73;;
43919;SDS011;29578;51.946;5.874;2024-03-08T02:47:46;3.47;;;1.80;;
43919;SDS011;29578;51.946;5.874;2024-03-08T02:50:14;3.53;;;1.80;;
43919;SDS011;29578;51.946;5.874;2024-03-08T02:52:41;4.05;;;1.75;;
43919;SDS011;29578;51.946;5.874;2024-03-08T02:55:07;3.88;;;1.75;;
43919;SDS011;29578;51.946;5.874;2024-03-08T02:57:35;2.72;;;1.58;;
43919;SDS011;29578;51.946;5.874;2024-03-08T03:00:02;3.45;;;1.90;;
43919;SDS011;29578;51.946;5.874;2024-03-08T03:02:29;3.85;;;1.92;;
43919;SDS011;29578;51.946;5.874;2024-03-08T03:04:54;2.75;;;1.58;;
43919;SDS011;29578;51.946;5.874;2024-03-08T03:07:21;4.25;;;1.83;;
43919;SDS011;29578;51.946;5.874;2024-03-08T03:09:46;3.58;;;2.03;;
43919;SDS011;29578;51.946;5.874;2024-03-08T03:12:12;3.80;;;2.00;;
43919;SDS011;29578;51.946;5.874;2024-03-08T03:14:39;4.18;;;2.13;;
43919;SDS011;29578;51.946;5.874;2024-03-08T03:17:04;4.35;;;2.40;;
43919;SDS011;29578;51.946;5.874;2024-03-08T03:19:30;3.15;;;1.63;;
43919;SDS011;29578;51.946;5.874;2024-03-08T03:21:56;4.40;;;2.10;;
43919;SDS011;29578;51.946;5.874;2024-03-08T03:24:22;3.38;;;1.85;;
43919;SDS011;29578;51.946;5.874;2024-03-08T03:26:48;5.00;;;2.47;;
43919;SDS011;29578;51.946;5.874;2024-03-08T03:29:15;3.80;;;2.35;;
43919;SDS011;29578;51.946;5.874;2024-03-08T03:31:42;3.90;;;2.10;;
43919;SDS011;29578;51.946;5.874;2024-03-08T03:34:11;3.63;;;1.73;;
43919;SDS011;29578;51.946;5.874;2024-03-08T03:36:37;2.75;;;1.52;;
43919;SDS011;29578;51.946;5.874;2024-03-08T03:39:07;3.67;;;2.08;;
43919;SDS011;29578;51.946;5.874;2024-03-08T03:41:41;5.72;;;2.45;;
43919;SDS011;29578;51.946;5.874;2024-03-08T03:44:09;3.75;;;2.08;;
43919;SDS011;29578;51.946;5.874;2024-03-08T03:46:35;3.35;;;1.85;;
43919;SDS011;29578;51.946;5.874;2024-03-08T03:49:00;3.15;;;1.75;;
43919;SDS011;29578;51.946;5.874;2024-03-08T03:51:28;3.03;;;1.50;;
43919;SDS011;29578;51.946;5.874;2024-03-08T03:53:54;3.15;;;1.70;;
43919;SDS011;29578;51.946;5.874;2024-03-08T03:56:24;3.60;;;2.08;;
43919;SDS011;29578;51.946;5.874;2024-03-08T03:58:51;4.38;;;2.30;;
43919;SDS011;29578;51.946;5.874;2024-03-08T04:01:17;3.28;;;1.77;;
43919;SDS011;29578;51.946;5.874;2024-03-08T04:03:42;4.15;;;2.10;;
43919;SDS011;29578;51.946;5.874;2024-03-08T04:06:08;4.55;;;2.20;;
43919;SDS011;29578;51.946;5.874;2024-03-08T04:08:34;4.30;;;1.98;;
43919;SDS011;29578;51.946;5.874;2024-03-08T04:11:00;3.70;;;2.00;;
43919;SDS011;29578;51.946;5.874;2024-03-08T04:13:26;3.28;;;2.00;;
43919;SDS011;29578;51.946;5.874;2024-03-08T04:15:52;3.90;;;1.80;;
43919;SDS011;29578;51.946;5.874;2024-03-08T04:18:18;3.65;;;1.90;;
43919;SDS011;29578;51.946;5.874;2024-03-08T04:20:44;3.75;;;1.98;;
43919;SDS011;29578;51.946;5.874;2024-03-08T04:23:10;3.15;;;1.73;;
43919;SDS011;29578;51.946;5.874;2024-03-08T04:25:36;2.80;;;1.60;;
43919;SDS011;29578;51.946;5.874;2024-03-08T04:28:01;2.60;;;1.48;;
43919;SDS011;29578;51.946;5.874;2024-03-08T04:30:27;3.50;;;1.67;;
43919;SDS011;29578;51.946;5.874;2024-03-08T04:32:53;3.83;;;1.63;;
43919;SDS011;29578;51.946;5.874;2024-03-08T04:35:19;4.05;;;2.13;;
43919;SDS011;29578;51.946;5.874;2024-03-08T04:37:46;5.05;;;1.92;;
43919;SDS011;29578;51.946;5.874;2024-03-08T04:40:12;3.20;;;1.90;;
43919;SDS011;29578;51.946;5.874;2024-03-08T04:42:37;3.80;;;1.90;;
43919;SDS011;29578;51.946;5.874;2024-03-08T04:45:05;3.15;;;1.45;;
43919;SDS011;29578;51.946;5.874;2024-03-08T04:47:33;3.50;;;1.88;;
43919;SDS011;29578;51.946;5.874;2024-03-08T04:49:58;4.13;;;1.63;;
43919;SDS011;29578;51.946;5.874;2024-03-08T04:52:24;4.05;;;2.08;;
43919;SDS011;29578;51.946;5.874;2024-03-08T04:54:51;3.22;;;1.67;;
43919;SDS011;29578;51.946;5.874;2024-03-08T04:57:16;3.78;;;1.92;;
43919;SDS011;29578;51.946;5.874;2024-03-08T04:59:43;3.03;;;1.55;;
43919;SDS011;29578;51.946;5.874;2024-03-08T05:02:09;3.20;;;1.80;;
43919;SDS011;29578;51.946;5.874;2024-03-08T05:04:34;2.92;;;1.80;;
43919;SDS011;29578;51.946;5.874;2024-03-08T05:07:00;4.78;;;2.25;;
43919;SDS011;29578;51.946;5.874;2024-03-08T05:09:27;3.33;;;1.90;;
43919;SDS011;29578;51.946;5.874;2024-03-08T05:11:56;4.90;;;2.13;;
43919;SDS011;29578;51.946;5.874;2024-03-08T05:14:24;3.30;;;1.90;;
43919;SDS011;29578;51.946;5.874;2024-03-08T05:16:50;2.83;;;1.75;;
43919;SDS011;29578;51.946;5.874;2024-03-08T05:19:16;3.55;;;1.95;;
43919;SDS011;29578;51.946;5.874;2024-03-08T05:21:43;3.10;;;1.70;;
43919;SDS011;29578;51.946;5.874;2024-03-08T05:24:09;3.42;;;1.77;;
43919;SDS011;29578;51.946;5.874;2024-03-08T05:26:35;3.65;;;1.90;;
43919;SDS011;29578;51.946;5.874;2024-03-08T05:29:02;3.65;;;1.85;;
43919;SDS011;29578;51.946;5.874;2024-03-08T05:31:28;2.78;;;1.98;;
43919;SDS011;29578;51.946;5.874;2024-03-08T05:33:56;3.70;;;2.00;;
43919;SDS011;29578;51.946;5.874;2024-03-08T05:36:21;2.60;;;1.70;;
43919;SDS011;29578;51.946;5.874;2024-03-08T05:38:47;3.42;;;1.98;;
43919;SDS011;29578;51.946;5.874;2024-03-08T05:41:15;3.22;;;1.70;;
43919;SDS011;29578;51.946;5.874;2024-03-08T05:43:42;4.97;;;2.28;;
43919;SDS011;29578;51.946;5.874;2024-03-08T05:46:08;3.53;;;1.77;;
43919;SDS011;29578;51.946;5.874;2024-03-08T05:48:36;2.90;;;1.67;;
43919;SDS011;29578;51.946;5.874;2024-03-08T05:51:02;5.93;;;2.63;;
43919;SDS011;29578;51.946;5.874;2024-03-08T05:53:28;4.00;;;2.22;;
43919;SDS011;29578;51.946;5.874;2024-03-08T05:55:57;3.33;;;1.80;;
43919;SDS011;29578;51.946;5.874;2024-03-08T05:58:23;3.42;;;1.90;;
43919;SDS011;29578;51.946;5.874;2024-03-08T06:00:49;3.88;;;1.90;;
43919;SDS011;29578;51.946;5.874;2024-03-08T06:03:15;3.55;;;1.67;;
43919;SDS011;29578;51.946;5.874;2024-03-08T06:05:41;3.65;;;1.92;;
43919;SDS011;29578;51.946;5.874;2024-03-08T06:08:07;2.85;;;1.65;;
43919;SDS011;29578;51.946;5.874;2024-03-08T06:10:33;3.47;;;1.80;;
43919;SDS011;29578;51.946;5.874;2024-03-08T06:12:59;4.43;;;2.15;;
43919;SDS011;29578;51.946;5.874;2024-03-08T06:15:25;4.38;;;2.13;;
43919;SDS011;29578;51.946;5.874;2024-03-08T06:17:51;3.30;;;1.92;;
43919;SDS011;29578;51.946;5.874;2024-03-08T06:20:18;3.80;;;1.90;;
43919;SDS011;29578;51.946;5.874;2024-03-08T06:22:44;3.50;;;1.98;;
43919;SDS011;29578;51.946;5.874;2024-03-08T06:25:11;3.72;;;2.00;;
43919;SDS011;29578;51.946;5.874;2024-03-08T06:27:41;3.83;;;2.27;;
43919;SDS011;29578;51.946;5.874;2024-03-08T06:30:07;5.35;;;2.45;;
43919;SDS011;29578;51.946;5.874;2024-03-08T06:32:35;4.10;;;2.20;;
43919;SDS011;29578;51.946;5.874;2024-03-08T06:35:02;3.63;;;2.13;;
43919;SDS011;29578;51.946;5.874;2024-03-08T06:37:31;4.10;;;2.00;;
43919;SDS011;29578;51.946;5.874;2024-03-08T06:39:58;4.68;;;2.08;;
43919;SDS011;29578;51.946;5.874;2024-03-08T06:42:24;3.85;;;1.88;;
43919;SDS011;29578;51.946;5.874;2024-03-08T06:44:50;4.13;;;1.90;;
43919;SDS011;29578;51.946;5.874;2024-03-08T06:47:15;4.10;;;2.15;;
43919;SDS011;29578;51.946;5.874;2024-03-08T06:49:42;4.13;;;2.30;;
43919;SDS011;29578;51.946;5.874;2024-03-08T06:52:09;4.18;;;1.95;;
43919;SDS011;29578;51.946;5.874;2024-03-08T06:54:35;3.53;;;1.90;;
43919;SDS011;29578;51.946;5.874;2024-03-08T06:57:03;4.93;;;2.20;;
43919;SDS011;29578;51.946;5.874;2024-03-08T06:59:30;4.57;;;2.13;;
43919;SDS011;29578;51.946;5.874;2024-03-08T07:01:56;4.25;;;2.17;;
43919;SDS011;29578;51.946;5.874;2024-03-08T07:04:24;4.65;;;2.40;;
43919;SDS011;29578;51.946;5.874;2024-03-08T07:06:55;4.88;;;2.38;;
43919;SDS011;29578;51.946;5.874;2024-03-08T07:09:20;4.72;;;2.45;;
43919;SDS011;29578;51.946;5.874;2024-03-08T07:11:46;4.97;;;2.72;;
43919;SDS011;29578;51.946;5.874;2024-03-08T07:14:12;3.65;;;2.15;;
43919;SDS011;29578;51.946;5.874;2024-03-08T07:16:40;4.30;;;2.25;;
43919;SDS011;29578;51.946;5.874;2024-03-08T07:19:06;4.10;;;2.17;;
43919;SDS011;29578;51.946;5.874;2024-03-08T07:21:32;5.10;;;2.63;;
43919;SDS011;29578;51.946;5.874;2024-03-08T07:23:58;4.03;;;2.38;;
43919;SDS011;29578;51.946;5.874;2024-03-08T07:26:43;6.03;;;2.80;;
43919;SDS011;29578;51.946;5.874;2024-03-08T07:29:09;5.05;;;2.63;;
43919;SDS011;29578;51.946;5.874;2024-03-08T07:31:34;5.63;;;2.90;;
43919;SDS011;29578;51.946;5.874;2024-03-08T07:34:16;4.88;;;2.28;;
43919;SDS011;29578;51.946;5.874;2024-03-08T07:36:42;6.15;;;2.45;;
43919;SDS011;29578;51.946;5.874;2024-03-08T07:39:07;4.47;;;2.30;;
43919;SDS011;29578;51.946;5.874;2024-03-08T07:41:37;4.28;;;2.67;;
43919;SDS011;29578;51.946;5.874;2024-03-08T07:44:05;5.25;;;2.45;;
43919;SDS011;29578;51.946;5.874;2024-03-08T07:46:31;4.18;;;2.38;;
43919;SDS011;29578;51.946;5.874;2024-03-08T07:48:59;6.07;;;3.08;;
43919;SDS011;29578;51.946;5.874;2024-03-08T07:51:25;5.03;;;2.70;;
43919;SDS011;29578;51.946;5.874;2024-03-08T07:53:50;4.75;;;2.45;;
43919;SDS011;29578;51.946;5.874;2024-03-08T07:56:16;6.07;;;2.65;;
43919;SDS011;29578;51.946;5.874;2024-03-08T07:58:44;5.32;;;2.67;;
43919;SDS011;29578;51.946;5.874;2024-03-08T08:01:18;5.63;;;2.70;;
43919;SDS011;29578;51.946;5.874;2024-03-08T08:03:44;4.60;;;2.38;;
43919;SDS011;29578;51.946;5.874;2024-03-08T08:06:11;5.40;;;2.67;;
43919;SDS011;29578;51.946;5.874;2024-03-08T08:08:41;5.88;;;2.67;;
43919;SDS011;29578;51.946;5.874;2024-03-08T08:11:07;4.57;;;2.25;;
43919;SDS011;29578;51.946;5.874;2024-03-08T08:13:34;5.80;;;2.75;;
43919;SDS011;29578;51.946;5.874;2024-03-08T08:16:01;4.25;;;2.20;;
43919;SDS011;29578;51.946;5.874;2024-03-08T08:18:27;4.70;;;2.38;;
43919;SDS011;29578;51.946;5.874;2024-03-08T08:20:54;4.55;;;2.50;;
43919;SDS011;29578;51.946;5.874;2024-03-08T08:23:20;5.93;;;2.72;;
43919;SDS011;29578;51.946;5.874;2024-03-08T08:25:46;4.72;;;2.40;;
43919;SDS011;29578;51.946;5.874;2024-03-08T08:28:18;5.05;;;2.40;;
43919;SDS011;29578;51.946;5.874;2024-03-08T08:30:44;5.07;;;2.40;;
43919;SDS011;29578;51.946;5.874;2024-03-08T08:33:10;6.47;;;3.22;;
43919;SDS011;29578;51.946;5.874;2024-03-08T08:35:36;6.78;;;3.45;;
43919;SDS011;29578;51.946;5.874;2024-03-08T08:38:03;5.30;;;2.22;;
43919;SDS011;29578;51.946;5.874;2024-03-08T08:40:29;6.10;;;3.00;;
43919;SDS011;29578;51.946;5.874;2024-03-08T08:42:57;6.05;;;2.95;;
43919;SDS011;29578;51.946;5.874;2024-03-08T08:45:23;5.80;;;2.63;;
43919;SDS011;29578;51.946;5.874;2024-03-08T08:47:49;5.78;;;2.92;;
43919;SDS011;29578;51.946;5.874;2024-03-08T08:50:15;6.53;;;3.13;;
43919;SDS011;29578;51.946;5.874;2024-03-08T08:52:41;5.43;;;2.72;;
43919;SDS011;29578;51.946;5.874;2024-03-08T08:55:08;6.20;;;2.80;;
43919;SDS011;29578;51.946;5.874;2024-03-08T08:57:39;6.05;;;2.90;;
43919;SDS011;29578;51.946;5.874;2024-03-08T09:00:05;5.63;;;2.70;;
43919;SDS011;29578;51.946;5.874;2024-03-08T09:02:34;5.25;;;2.60;;
43919;SDS011;29578;51.946;5.874;2024-03-08T09:05:00;5.38;;;2.88;;
43919;SDS011;29578;51.946;5.874;2024-03-08T09:07:26;6.22;;;3.08;;
43919;SDS011;29578;51.946;5.874;2024-03-08T09:09:53;4.50;;;2.50;;
43919;SDS011;29578;51.946;5.874;2024-03-08T09:12:23;5.05;;;3.13;;
43919;SDS011;29578;51.946;5.874;2024-03-08T09:14:49;4.35;;;2.40;;
43919;SDS011;29578;51.946;5.874;2024-03-08T09:17:15;5.10;;;2.65;;
43919;SDS011;29578;51.946;5.874;2024-03-08T09:19:46;5.28;;;2.78;;
43919;SDS011;29578;51.946;5.874;2024-03-08T09:22:12;5.00;;;2.85;;
43919;SDS011;29578;51.946;5.874;2024-03-08T09:24:38;5.40;;;3.00;;
43919;SDS011;29578;51.946;5.874;2024-03-08T09:27:04;5.78;;;3.10;;
43919;SDS011;29578;51.946;5.874;2024-03-08T09:29:30;6.18;;;3.20;;
43919;SDS011;29578;51.946;5.874;2024-03-08T09:31:56;5.65;;;2.85;;
43919;SDS011;29578;51.946;5.874;2024-03-08T09:34:22;3.63;;;2.15;;
43919;SDS011;29578;51.946;5.874;2024-03-08T09:36:48;4.75;;;2.65;;
43919;SDS011;29578;51.946;5.874;2024-03-08T09:39:15;4.35;;;2.38;;
43919;SDS011;29578;51.946;5.874;2024-03-08T09:41:43;5.88;;;3.03;;
43919;SDS011;29578;51.946;5.874;2024-03-08T09:44:09;5.15;;;2.80;;
43919;SDS011;29578;51.946;5.874;2024-03-08T09:46:35;4.78;;;2.58;;
43919;SDS011;29578;51.946;5.874;2024-03-08T09:49:01;3.80;;;2.20;;
43919;SDS011;29578;51.946;5.874;2024-03-08T09:51:28;4.55;;;2.60;;
43919;SDS011;29578;51.946;5.874;2024-03-08T09:53:54;5.38;;;2.72;;
43919;SDS011;29578;51.946;5.874;2024-03-08T09:56:21;5.95;;;3.25;;
43919;SDS011;29578;51.946;5.874;2024-03-08T09:58:48;5.35;;;2.65;;
43919;SDS011;29578;51.946;5.874;2024-03-08T10:01:33;4.20;;;2.30;;
43919;SDS011;29578;51.946;5.874;2024-03-08T10:03:58;4.15;;;2.53;;
43919;SDS011;29578;51.946;5.874;2024-03-08T10:06:24;5.32;;;2.65;;
43919;SDS011;29578;51.946;5.874;2024-03-08T10:08:50;3.90;;;2.22;;
43919;SDS011;29578;51.946;5.874;2024-03-08T10:11:17;4.75;;;2.45;;
43919;SDS011;29578;51.946;5.874;2024-03-08T10:13:44;3.83;;;2.10;;
43919;SDS011;29578;51.946;5.874;2024-03-08T10:16:11;5.47;;;2.33;;
43919;SDS011;29578;51.946;5.874;2024-03-08T10:18:37;5.30;;;2.67;;
43919;SDS011;29578;51.946;5.874;2024-03-08T10:21:04;5.40;;;3.05;;
43919;SDS011;29578;51.946;5.874;2024-03-08T10:23:32;3.80;;;2.20;;
43919;SDS011;29578;51.946;5.874;2024-03-08T10:26:08;5.32;;;2.75;;
43919;SDS011;29578;51.946;5.874;2024-03-08T10:28:40;4.68;;;2.22;;
43919;SDS011;29578;51.946;5.874;2024-03-08T10:31:06;4.47;;;2.50;;
43919;SDS011;29578;51.946;5.874;2024-03-08T10:33:32;5.38;;;2.47;;
43919;SDS011;29578;51.946;5.874;2024-03-08T10:35:58;4.70;;;2.30;;
43919;SDS011;29578;51.946;5.874;2024-03-08T10:38:24;5.10;;;2.83;;
43919;SDS011;29578;51.946;5.874;2024-03-08T10:40:54;5.07;;;2.65;;
43919;SDS011;29578;51.946;5.874;2024-03-08T10:43:24;4.82;;;2.58;;
43919;SDS011;29578;51.946;5.874;2024-03-08T10:45:52;5.25;;;2.63;;
43919;SDS011;29578;51.946;5.874;2024-03-08T10:48:29;4.32;;;2.63;;
43919;SDS011;29578;51.946;5.874;2024-03-08T10:50:57;4.97;;;2.70;;
43919;SDS011;29578;51.946;5.874;2024-03-08T10:53:26;6.00;;;3.20;;
43919;SDS011;29578;51.946;5.874;2024-03-08T10:55:54;6.07;;;2.80;;
43919;SDS011;29578;51.946;5.874;2024-03-08T10:58:22;5.53;;;2.80;;
43919;SDS011;29578;51.946;5.874;2024-03-08T11:00:52;5.18;;;2.67;;
43919;SDS011;29578;51.946;5.874;2024-03-08T11:06:17;5.20;;;2.58;;
43919;SDS011;29578;51.946;5.874;2024-03-08T11:08:48;4.22;;;2.50;;
43919;SDS011;29578;51.946;5.874;2024-03-08T11:11:23;4.05;;;2.40;;
43919;SDS011;29578;51.946;5.874;2024-03-08T11:13:52;5.32;;;2.65;;
43919;SDS011;29578;51.946;5.874;2024-03-08T11:19:25;4.95;;;2.88;;
43919;SDS011;29578;51.946;5.874;2024-03-08T11:21:56;5.10;;;2.78;;
43919;SDS011;29578;51.946;5.874;2024-03-08T11:24:25;4.53;;;2.58;;
43919;SDS011;29578;51.946;5.874;2024-03-08T11:26:54;5.38;;;2.85;;
43919;SDS011;29578;51.946;5.874;2024-03-08T11:29:34;5.70;;;2.85;;
43919;SDS011;29578;51.946;5.874;2024-03-08T11:34:46;4.45;;;2.55;;
43919;SDS011;29578;51.946;5.874;2024-03-08T11:37:13;5.40;;;2.92;;
43919;SDS011;29578;51.946;5.874;2024-03-08T11:39:40;5.32;;;2.80;;
43919;SDS011;29578;51.946;5.874;2024-03-08T11:42:12;5.63;;;3.00;;
43919;SDS011;29578;51.946;5.874;2024-03-08T11:44:37;6.18;;;3.22;;
43919;SDS011;29578;51.946;5.874;2024-03-08T11:47:08;5.30;;;3.10;;
43919;SDS011;29578;51.946;5.874;2024-03-08T11:49:35;4.53;;;2.60;;
43919;SDS011;29578;51.946;5.874;2024-03-08T11:52:01;4.88;;;2.78;;
43919;SDS011;29578;51.946;5.874;2024-03-08T11:54:28;5.35;;;3.10;;
43919;SDS011;29578;51.946;5.874;2024-03-08T11:56:55;5.65;;;3.13;;
43919;SDS011;29578;51.946;5.874;2024-03-08T11:59:26;4.90;;;2.88;;
43919;SDS011;29578;51.946;5.874;2024-03-08T12:04:32;4.85;;;2.80;;
43919;SDS011;29578;51.946;5.874;2024-03-08T12:06:59;4.35;;;2.40;;
43919;SDS011;29578;51.946;5.874;2024-03-08T12:09:27;5.00;;;2.97;;
43919;SDS011;29578;51.946;5.874;2024-03-08T12:11:54;4.70;;;2.50;;
43919;SDS011;29578;51.946;5.874;2024-03-08T12:14:20;4.75;;;2.72;;
43919;SDS011;29578;51.946;5.874;2024-03-08T12:16:48;4.72;;;2.70;;
43919;SDS011;29578;51.946;5.874;2024-03-08T12:19:16;5.50;;;2.92;;
43919;SDS011;29578;51.946;5.874;2024-03-08T12:21:42;5.18;;;2.97;;
43919;SDS011;29578;51.946;5.874;2024-03-08T12:24:14;4.60;;;2.65;;
43919;SDS011;29578;51.946;5.874;2024-03-08T12:26:44;4.35;;;2.67;;
43919;SDS011;29578;51.946;5.874;2024-03-08T12:29:15;4.15;;;2.33;;
43919;SDS011;29578;51.946;5.874;2024-03-08T12:31:42;5.20;;;2.85;;
43919;SDS011;29578;51.946;5.874;2024-03-08T12:34:08;3.90;;;2.45;;
43919;SDS011;29578;51.946;5.874;2024-03-08T12:36:35;4.70;;;2.85;;
43919;SDS011;29578;51.946;5.874;2024-03-08T12:39:02;4.90;;;2.92;;
43919;SDS011;29578;51.946;5.874;2024-03-08T12:41:29;4.13;;;2.15;;
43919;SDS011;29578;51.946;5.874;2024-03-08T12:43:54;3.30;;;2.22;;
43919;SDS011;29578;51.946;5.874;2024-03-08T12:46:21;5.82;;;3.08;;
43919;SDS011;29578;51.946;5.874;2024-03-08T12:48:47;5.38;;;3.05;;
43919;SDS011;29578;51.946;5.874;2024-03-08T12:51:13;4.88;;;2.72;;
43919;SDS011;29578;51.946;5.874;2024-03-08T12:53:40;4.80;;;2.97;;
43919;SDS011;29578;51.946;5.874;2024-03-08T12:56:11;4.95;;;2.85;;
43919;SDS011;29578;51.946;5.874;2024-03-08T12:58:37;6.57;;;3.83;;
43919;SDS011;29578;51.946;5.874;2024-03-08T13:01:04;6.03;;;3.55;;
43919;SDS011;29578;51.946;5.874;2024-03-08T13:03:32;5.65;;;3.50;;
43919;SDS011;29578;51.946;5.874;2024-03-08T13:06:01;5.78;;;3.30;;
43919;SDS011;29578;51.946;5.874;2024-03-08T13:08:28;6.10;;;3.22;;
43919;SDS011;29578;51.946;5.874;2024-03-08T13:10:56;6.13;;;3.20;;
43919;SDS011;29578;51.946;5.874;2024-03-08T13:13:21;5.22;;;3.10;;
43919;SDS011;29578;51.946;5.874;2024-03-08T13:15:47;5.00;;;2.90;;
43919;SDS011;29578;51.946;5.874;2024-03-08T13:18:14;6.93;;;3.58;;
43919;SDS011;29578;51.946;5.874;2024-03-08T13:20:41;5.93;;;3.50;;
43919;SDS011;29578;51.946;5.874;2024-03-08T13:23:09;5.10;;;3.28;;
43919;SDS011;29578;51.946;5.874;2024-03-08T13:25:34;5.53;;;3.50;;
43919;SDS011;29578;51.946;5.874;2024-03-08T13:28:03;6.05;;;3.22;;
43919;SDS011;29578;51.946;5.874;2024-03-08T13:30:29;5.43;;;3.08;;
43919;SDS011;29578;51.946;5.874;2024-03-08T13:32:55;4.68;;;2.60;;
43919;SDS011;29578;51.946;5.874;2024-03-08T13:35:21;5.20;;;2.95;;
43919;SDS011;29578;51.946;5.874;2024-03-08T13:37:52;4.78;;;2.60;;
43919;SDS011;29578;51.946;5.874;2024-03-08T13:40:17;4.97;;;2.97;;
43919;SDS011;29578;51.946;5.874;2024-03-08T13:42:45;4.25;;;2.67;;
43919;SDS011;29578;51.946;5.874;2024-03-08T13:45:11;5.00;;;2.78;;
43919;SDS011;29578;51.946;5.874;2024-03-08T13:47:38;5.55;;;3.03;;
43919;SDS011;29578;51.946;5.874;2024-03-08T13:50:05;4.95;;;2.83;;
43919;SDS011;29578;51.946;5.874;2024-03-08T13:52:33;4.60;;;2.90;;
43919;SDS011;29578;51.946;5.874;2024-03-08T13:55:00;5.43;;;2.90;;
43919;SDS011;29578;51.946;5.874;2024-03-08T13:57:26;4.68;;;2.80;;
43919;SDS011;29578;51.946;5.874;2024-03-08T13:59:52;5.35;;;3.25;;
43919;SDS011;29578;51.946;5.874;2024-03-08T14:02:18;5.45;;;3.22;;
43919;SDS011;29578;51.946;5.874;2024-03-08T14:04:44;5.55;;;3.03;;
43919;SDS011;29578;51.946;5.874;2024-03-08T14:07:10;4.97;;;2.70;;
43919;SDS011;29578;51.946;5.874;2024-03-08T14:09:36;4.82;;;2.90;;
43919;SDS011;29578;51.946;5.874;2024-03-08T14:12:04;4.22;;;2.47;;
43919;SDS011;29578;51.946;5.874;2024-03-08T14:14:32;4.68;;;2.42;;
43919;SDS011;29578;51.946;5.874;2024-03-08T14:17:00;3.42;;;2.20;;
43919;SDS011;29578;51.946;5.874;2024-03-08T14:19:27;4.22;;;2.30;;
43919;SDS011;29578;51.946;5.874;2024-03-08T14:21:53;4.63;;;2.55;;
43919;SDS011;29578;51.946;5.874;2024-03-08T14:24:19;4.22;;;2.55;;
43919;SDS011;29578;51.946;5.874;2024-03-08T14:26:45;4.60;;;2.53;;
43919;SDS011;29578;51.946;5.874;2024-03-08T14:29:14;3.50;;;2.10;;
43919;SDS011;29578;51.946;5.874;2024-03-08T14:31:40;4.32;;;2.42;;
43919;SDS011;29578;51.946;5.874;2024-03-08T14:34:08;3.95;;;2.30;;
43919;SDS011;29578;51.946;5.874;2024-03-08T14:36:34;6.18;;;2.90;;
43919;SDS011;29578;51.946;5.874;2024-03-08T14:38:59;5.50;;;3.17;;
43919;SDS011;29578;51.946;5.874;2024-03-08T14:41:25;5.15;;;3.00;;
43919;SDS011;29578;51.946;5.874;2024-03-08T14:43:51;4.85;;;2.90;;
43919;SDS011;29578;51.946;5.874;2024-03-08T14:46:18;4.28;;;2.42;;
43919;SDS011;29578;51.946;5.874;2024-03-08T14:48:46;5.03;;;2.90;;
43919;SDS011;29578;51.946;5.874;2024-03-08T14:51:12;4.45;;;2.58;;
43919;SDS011;29578;51.946;5.874;2024-03-08T14:53:40;4.93;;;2.90;;
43919;SDS011;29578;51.946;5.874;2024-03-08T14:56:09;5.13;;;3.17;;
43919;SDS011;29578;51.946;5.874;2024-03-08T14:58:36;4.95;;;2.80;;